createdAt,value
2022-09-15T20:05:07.137Z,62.86
2022-09-15T20:10:14.706Z,62.48
2022-09-15T20:15:22.343Z,62.05
2022-09-15T20:20:32.961Z,62.09
2022-09-15T20:25:40.505Z,62.01
2022-09-15T20:30:48.035Z,62.37
2022-09-15T20:35:58.726Z,62.61
2022-09-15T20:41:07.112Z,62.30
2022-09-15T20:46:16.638Z,62.54
2022-09-15T20:51:29.705Z,62.43
2022-09-15T20:56:38.796Z,62.54
2022-09-15T21:08:09.286Z,63.76
2022-09-15T21:13:16.756Z,63.32
2022-09-15T21:18:25.346Z,63.50
2022-09-15T21:23:40.280Z,63.44
2022-09-15T21:28:48.798Z,63.46
2022-09-15T21:33:57.045Z,63.53
2022-09-15T21:39:07.099Z,63.83
2022-09-15T21:44:15.240Z,63.54
2022-09-15T21:49:23.059Z,63.68
2022-09-15T21:54:33.170Z,64.06
2022-09-15T21:59:41.500Z,64.34
2022-09-15T22:04:49.047Z,64.18
2022-09-15T22:09:59.087Z,64.15
2022-09-15T22:15:07.465Z,64.48
2022-09-15T22:20:15.031Z,64.41
2022-09-15T22:25:25.237Z,64.76
2022-09-15T22:30:32.725Z,64.75
2022-09-15T22:35:40.204Z,64.61
2022-09-15T22:40:50.287Z,64.74
2022-09-15T22:45:57.824Z,64.86
2022-09-15T22:51:07.002Z,64.91
2022-09-15T22:56:20.010Z,64.96
2022-09-15T23:01:30.560Z,65.30
2022-09-15T23:06:38.091Z,64.91
2022-09-15T23:11:48.150Z,65.38
2022-09-15T23:16:55.658Z,65.09
2022-09-15T23:22:03.141Z,65.34
2022-09-15T23:27:13.210Z,65.24
2022-09-15T23:32:20.685Z,65.25
2022-09-15T23:37:28.210Z,65.29
2022-09-15T23:42:38.281Z,65.27
2022-09-15T23:47:45.780Z,65.24
2022-09-15T23:52:53.258Z,65.29
2022-09-15T23:58:03.602Z,65.45
